sensor_id;sensor_type;location;lat;lon;timestamp;pressure;altitude;pressure_sealevel;temperature;humidity
33191;BME280;19554;42.652;23.364;2024-01-15T00:02:10;94012.44;;;-0.83;59.64
33191;BME280;19554;42.652;23.364;2024-01-15T00:04:39;94066.47;;;-0.42;59.91
33191;BME280;19554;42.652;23.364;2024-01-15T00:07:05;93973.06;;;-1.00;59.77
33191;BME280;19554;42.652;23.364;2024-01-15T00:09:31;93946.78;;;-1.05;59.43
33191;BME280;19554;42.652;23.364;2024-01-15T00:11:56;93939.47;;;-1.03;59.29
33191;BME280;19554;42.652;23.364;2024-01-15T00:14:22;94034.66;;;-0.34;59.78
33191;BME280;19554;42.652;23.364;2024-01-15T00:16:48;94014.28;;;-0.55;59.02
33191;BME280;19554;42.652;23.364;2024-01-15T00:19:16;94042.16;;;-0.78;58.47
33191;BME280;19554;42.652;23.364;2024-01-15T00:21:42;94024.84;;;-0.79;59.61
33191;BME280;19554;42.652;23.364;2024-01-15T00:24:07;94017.81;;;-0.90;59.50
33191;BME280;19554;42.652;23.364;2024-01-15T00:26:33;93956.28;;;-1.28;59.82
33191;BME280;19554;42.652;23.364;2024-01-15T00:28:58;94028.81;;;-0.76;59.66
33191;BME280;19554;42.652;23.364;2024-01-15T00:31:24;93997.31;;;-0.93;59.91
33191;BME280;19554;42.652;23.364;2024-01-15T00:33:49;94064.75;;;-0.48;59.52
33191;BME280;19554;42.652;23.364;2024-01-15T00:36:15;94010.16;;;-0.80;58.79
33191;BME280;19554;42.652;23.364;2024-01-15T00:38:42;94054.38;;;-0.43;58.58
33191;BME280;19554;42.652;23.364;2024-01-15T00:41:07;93995.94;;;-0.84;58.69
33191;BME280;19554;42.652;23.364;2024-01-15T00:43:33;94043.13;;;-0.55;58.85
33191;BME280;19554;42.652;23.364;2024-01-15T00:46:02;93866.22;;;-1.67;57.69
33191;BME280;19554;42.652;23.364;2024-01-15T00:48:27;93983.66;;;-0.95;58.15
33191;BME280;19554;42.652;23.364;2024-01-15T00:50:53;93984.78;;;-0.91;58.77
33191;BME280;19554;42.652;23.364;2024-01-15T00:53:19;94058.97;;;-0.50;59.12
33191;BME280;19554;42.652;23.364;2024-01-15T00:55:47;94014.03;;;-0.82;60.12
33191;BME280;19554;42.652;23.364;2024-01-15T00:58:13;93963.31;;;-1.16;59.77
33191;BME280;19554;42.652;23.364;2024-01-15T01:00:38;94056.22;;;-0.55;58.91
33191;BME280;19554;42.652;23.364;2024-01-15T01:03:04;93987.66;;;-1.04;59.08
33191;BME280;19554;42.652;23.364;2024-01-15T01:05:29;94053.19;;;-0.64;58.74
33191;BME280;19554;42.652;23.364;2024-01-15T01:07:55;94036.47;;;-0.86;58.77
33191;BME280;19554;42.652;23.364;2024-01-15T01:10:20;94047.66;;;-0.91;59.31
33191;BME280;19554;42.652;23.364;2024-01-15T01:12:46;94030.44;;;-0.87;59.85
33191;BME280;19554;42.652;23.364;2024-01-15T01:15:11;94049.66;;;-0.69;60.41
33191;BME280;19554;42.652;23.364;2024-01-15T01:17:37;93939.31;;;-1.37;59.92
33191;BME280;19554;42.652;23.364;2024-01-15T01:20:03;94049.00;;;-0.65;60.08
33191;BME280;19554;42.652;23.364;2024-01-15T01:22:30;93991.19;;;-1.10;59.16
33191;BME280;19554;42.652;23.364;2024-01-15T01:24:55;94052.84;;;-0.67;59.45
33191;BME280;19554;42.652;23.364;2024-01-15T01:27:21;93954.09;;;-1.31;59.44
33191;BME280;19554;42.652;23.364;2024-01-15T01:29:47;94054.91;;;-0.69;59.21
33191;BME280;19554;42.652;23.364;2024-01-15T01:32:12;93987.53;;;-0.98;59.19
33191;BME280;19554;42.652;23.364;2024-01-15T01:34:41;93980.25;;;-0.96;59.46
33191;BME280;19554;42.652;23.364;2024-01-15T01:37:10;94036.44;;;-0.63;59.45
33191;BME280;19554;42.652;23.364;2024-01-15T01:39:38;94013.22;;;-0.83;59.48
33191;BME280;19554;42.652;23.364;2024-01-15T01:42:03;93986.88;;;-1.05;59.02
33191;BME280;19554;42.652;23.364;2024-01-15T01:44:29;93930.00;;;-1.33;59.92
33191;BME280;19554;42.652;23.364;2024-01-15T01:46:54;94031.31;;;-0.69;60.46
33191;BME280;19554;42.652;23.364;2024-01-15T01:49:22;93980.94;;;-1.00;60.17
33191;BME280;19554;42.652;23.364;2024-01-15T01:51:48;93931.91;;;-1.28;60.35
33191;BME280;19554;42.652;23.364;2024-01-15T01:54:13;94009.81;;;-0.72;60.84
33191;BME280;19554;42.652;23.364;2024-01-15T01:56:40;94033.78;;;-0.51;61.40
33191;BME280;19554;42.652;23.364;2024-01-15T01:59:07;94012.50;;;-0.66;60.47
33191;BME280;19554;42.652;23.364;2024-01-15T02:01:35;93968.03;;;-0.78;61.07
33191;BME280;19554;42.652;23.364;2024-01-15T02:04:01;93945.25;;;-0.89;60.82
33191;BME280;19554;42.652;23.364;2024-01-15T02:06:26;93891.03;;;-1.17;60.81
33191;BME280;19554;42.652;23.364;2024-01-15T02:08:52;94011.50;;;-0.37;59.98
33191;BME280;19554;42.652;23.364;2024-01-15T02:11:18;94001.50;;;-0.40;59.54
33191;BME280;19554;42.652;23.364;2024-01-15T02:13:44;94017.88;;;-0.33;59.56
33191;BME280;19554;42.652;23.364;2024-01-15T02:16:09;94010.59;;;-0.31;59.87
33191;BME280;19554;42.652;23.364;2024-01-15T02:18:44;93945.97;;;-0.65;59.57
33191;BME280;19554;42.652;23.364;2024-01-15T02:21:11;93980.53;;;-0.40;59.60
33191;BME280;19554;42.652;23.364;2024-01-15T02:23:37;93986.28;;;-0.26;59.30
33191;BME280;19554;42.652;23.364;2024-01-15T02:26:04;93934.88;;;-0.56;59.89
33191;BME280;19554;42.652;23.364;2024-01-15T02:28:30;93958.63;;;-0.34;59.00
33191;BME280;19554;42.652;23.364;2024-01-15T02:30:55;93887.06;;;-0.63;58.38
33191;BME280;19554;42.652;23.364;2024-01-15T02:33:21;93938.91;;;-0.19;58.29
33191;BME280;19554;42.652;23.364;2024-01-15T02:35:47;93849.63;;;-0.92;59.86
33191;BME280;19554;42.652;23.364;2024-01-15T02:38:15;93882.91;;;-0.76;60.22
33191;BME280;19554;42.652;23.364;2024-01-15T02:40:42;93944.00;;;-0.30;60.86
33191;BME280;19554;42.652;23.364;2024-01-15T02:43:08;93948.31;;;-0.23;60.56
33191;BME280;19554;42.652;23.364;2024-01-15T02:45:34;93913.00;;;-0.33;60.63
33191;BME280;19554;42.652;23.364;2024-01-15T02:47:59;93850.97;;;-0.73;59.90
33191;BME280;19554;42.652;23.364;2024-01-15T02:50:25;93936.38;;;-0.14;59.73
33191;BME280;19554;42.652;23.364;2024-01-15T02:52:51;93912.06;;;-0.27;59.60
33191;BME280;19554;42.652;23.364;2024-01-15T02:55:17;93915.22;;;-0.25;59.58
33191;BME280;19554;42.652;23.364;2024-01-15T02:57:42;93922.56;;;-0.27;58.91
33191;BME280;19554;42.652;23.364;2024-01-15T03:00:08;93935.81;;;-0.16;59.19
33191;BME280;19554;42.652;23.364;2024-01-15T03:02:38;93908.38;;;-0.42;58.06
33191;BME280;19554;42.652;23.364;2024-01-15T03:05:06;93821.84;;;-1.22;58.92
33191;BME280;19554;42.652;23.364;2024-01-15T03:07:32;93910.97;;;-0.88;59.74
33191;BME280;19554;42.652;23.364;2024-01-15T03:09:57;93947.38;;;-0.75;59.47
33191;BME280;19554;42.652;23.364;2024-01-15T03:12:23;93909.22;;;-0.99;59.85
33191;BME280;19554;42.652;23.364;2024-01-15T03:14:48;93853.13;;;-1.55;59.90
33191;BME280;19554;42.652;23.364;2024-01-15T03:17:14;93867.81;;;-1.66;61.36
33191;BME280;19554;42.652;23.364;2024-01-15T03:19:39;93933.16;;;-1.31;62.12
33191;BME280;19554;42.652;23.364;2024-01-15T03:22:05;93933.38;;;-1.21;62.18
33191;BME280;19554;42.652;23.364;2024-01-15T03:24:33;93942.94;;;-1.14;61.83
33191;BME280;19554;42.652;23.364;2024-01-15T03:26:59;93946.13;;;-1.12;61.77
33191;BME280;19554;42.652;23.364;2024-01-15T03:29:25;93928.81;;;-1.13;60.80
33191;BME280;19554;42.652;23.364;2024-01-15T03:31:51;93877.03;;;-1.63;62.21
33191;BME280;19554;42.652;23.364;2024-01-15T03:34:17;93851.94;;;-1.88;62.36
33191;BME280;19554;42.652;23.364;2024-01-15T03:36:42;93919.66;;;-1.51;63.53
33191;BME280;19554;42.652;23.364;2024-01-15T03:39:08;93880.47;;;-1.98;65.07
33191;BME280;19554;42.652;23.364;2024-01-15T03:41:33;93929.34;;;-1.87;66.25
33191;BME280;19554;42.652;23.364;2024-01-15T03:43:59;93907.44;;;-2.51;67.55
33191;BME280;19554;42.652;23.364;2024-01-15T03:46:24;93815.09;;;-3.11;68.39
33191;BME280;19554;42.652;23.364;2024-01-15T03:48:50;93888.31;;;-2.64;68.52
33191;BME280;19554;42.652;23.364;2024-01-15T03:51:17;93903.59;;;-2.37;68.77
33191;BME280;19554;42.652;23.364;2024-01-15T03:53:43;93855.19;;;-2.51;67.90
33191;BME280;19554;42.652;23.364;2024-01-15T03:56:08;93882.59;;;-2.30;67.86
33191;BME280;19554;42.652;23.364;2024-01-15T03:58:34;93856.94;;;-2.22;67.49
33191;BME280;19554;42.652;23.364;2024-01-15T04:00:59;93926.06;;;-1.71;66.85
33191;BME280;19554;42.652;23.364;2024-01-15T04:03:25;93902.97;;;-1.85;66.85
33191;BME280;19554;42.652;23.364;2024-01-15T04:05:50;93919.09;;;-1.53;66.05
33191;BME280;19554;42.652;23.364;2024-01-15T04:08:15;93914.63;;;-1.41;65.20
33191;BME280;19554;42.652;23.364;2024-01-15T04:10:41;93886.31;;;-1.44;64.71
33191;BME280;19554;42.652;23.364;2024-01-15T04:13:06;93907.19;;;-1.21;64.70
33191;BME280;19554;42.652;23.364;2024-01-15T04:15:32;93841.72;;;-1.49;64.55
33191;BME280;19554;42.652;23.364;2024-01-15T04:17:57;93903.56;;;-1.20;64.07
33191;BME280;19554;42.652;23.364;2024-01-15T04:20:23;93855.34;;;-1.47;64.36
33191;BME280;19554;42.652;23.364;2024-01-15T04:22:48;93830.03;;;-1.58;64.08
33191;BME280;19554;42.652;23.364;2024-01-15T04:25:14;93818.31;;;-1.68;63.99
33191;BME280;19554;42.652;23.364;2024-01-15T04:27:39;93903.38;;;-1.30;64.22
33191;BME280;19554;42.652;23.364;2024-01-15T04:30:05;93846.75;;;-1.71;65.07
33191;BME280;19554;42.652;23.364;2024-01-15T04:32:31;93865.94;;;-1.42;64.73
33191;BME280;19554;42.652;23.364;2024-01-15T04:34:57;93899.78;;;-1.12;64.21
33191;BME280;19554;42.652;23.364;2024-01-15T04:37:22;93840.16;;;-1.50;64.01
33191;BME280;19554;42.652;23.364;2024-01-15T04:39:48;93883.75;;;-1.15;63.99
33191;BME280;19554;42.652;23.364;2024-01-15T04:42:13;93860.72;;;-1.13;64.01
33191;BME280;19554;42.652;23.364;2024-01-15T04:44:39;93902.28;;;-0.77;63.73
33191;BME280;19554;42.652;23.364;2024-01-15T04:47:04;93890.84;;;-0.70;63.45
33191;BME280;19554;42.652;23.364;2024-01-15T04:49:30;93787.69;;;-1.27;63.23
33191;BME280;19554;42.652;23.364;2024-01-15T04:51:55;93731.78;;;-1.66;62.28
33191;BME280;19554;42.652;23.364;2024-01-15T04:54:21;93878.00;;;-0.55;63.00
33191;BME280;19554;42.652;23.364;2024-01-15T04:56:46;93823.31;;;-0.97;62.43
33191;BME280;19554;42.652;23.364;2024-01-15T04:59:13;93789.09;;;-1.07;61.52
33191;BME280;19554;42.652;23.364;2024-01-15T05:01:39;93828.84;;;-0.82;60.90
33191;BME280;19554;42.652;23.364;2024-01-15T05:04:05;93777.59;;;-1.06;60.55
33191;BME280;19554;42.652;23.364;2024-01-15T05:06:30;93764.88;;;-1.14;60.24
33191;BME280;19554;42.652;23.364;2024-01-15T05:08:56;93831.78;;;-0.78;60.14
33191;BME280;19554;42.652;23.364;2024-01-15T05:11:22;93684.03;;;-1.73;60.45
33191;BME280;19554;42.652;23.364;2024-01-15T05:13:47;93735.16;;;-1.37;60.75
33191;BME280;19554;42.652;23.364;2024-01-15T05:16:13;93860.22;;;-0.53;61.56
33191;BME280;19554;42.652;23.364;2024-01-15T05:18:38;93793.97;;;-0.99;61.90
33191;BME280;19554;42.652;23.364;2024-01-15T05:21:04;93864.47;;;-0.81;63.68
33191;BME280;19554;42.652;23.364;2024-01-15T05:23:31;93773.56;;;-1.42;64.06
33191;BME280;19554;42.652;23.364;2024-01-15T05:25:57;93877.47;;;-1.14;64.59
33191;BME280;19554;42.652;23.364;2024-01-15T05:28:22;93774.59;;;-1.84;64.78
33191;BME280;19554;42.652;23.364;2024-01-15T05:30:48;93795.25;;;-1.71;64.70
33191;BME280;19554;42.652;23.364;2024-01-15T05:33:16;93864.19;;;-1.77;67.01
33191;BME280;19554;42.652;23.364;2024-01-15T05:35:41;93865.06;;;-1.71;67.30
33191;BME280;19554;42.652;23.364;2024-01-15T05:38:07;93814.66;;;-2.19;67.50
33191;BME280;19554;42.652;23.364;2024-01-15T05:40:32;93859.56;;;-1.98;68.45
33191;BME280;19554;42.652;23.364;2024-01-15T05:42:58;93796.81;;;-2.45;68.75
33191;BME280;19554;42.652;23.364;2024-01-15T05:45:23;93867.72;;;-1.83;68.45
33191;BME280;19554;42.652;23.364;2024-01-15T05:47:48;93818.72;;;-1.99;66.46
33191;BME280;19554;42.652;23.364;2024-01-15T05:50:14;93635.09;;;-3.05;66.59
33191;BME280;19554;42.652;23.364;2024-01-15T05:52:40;93795.06;;;-1.93;66.41
33191;BME280;19554;42.652;23.364;2024-01-15T05:55:05;93780.75;;;-1.90;65.85
33191;BME280;19554;42.652;23.364;2024-01-15T05:57:31;93808.53;;;-1.60;64.83
33191;BME280;19554;42.652;23.364;2024-01-15T05:59:56;93786.25;;;-1.75;64.56
33191;BME280;19554;42.652;23.364;2024-01-15T06:02:22;93827.16;;;-1.45;64.51
33191;BME280;19554;42.652;23.364;2024-01-15T06:04:47;93764.13;;;-1.84;64.52
33191;BME280;19554;42.652;23.364;2024-01-15T06:07:13;93775.00;;;-1.63;64.54
33191;BME280;19554;42.652;23.364;2024-01-15T06:09:38;93835.44;;;-1.36;64.12
33191;BME280;19554;42.652;23.364;2024-01-15T06:12:05;93817.66;;;-1.34;63.45
33191;BME280;19554;42.652;23.364;2024-01-15T06:14:30;93812.94;;;-1.49;63.35
33191;BME280;19554;42.652;23.364;2024-01-15T06:16:56;93788.47;;;-1.43;64.59
33191;BME280;19554;42.652;23.364;2024-01-15T06:19:21;93816.13;;;-1.18;64.81
33191;BME280;19554;42.652;23.364;2024-01-15T06:21:47;93816.66;;;-1.05;64.53
33191;BME280;19554;42.652;23.364;2024-01-15T06:24:12;93839.53;;;-0.83;64.52
33191;BME280;19554;42.652;23.364;2024-01-15T06:26:38;93777.19;;;-1.15;65.08
33191;BME280;19554;42.652;23.364;2024-01-15T06:29:04;93838.22;;;-0.52;64.66
33191;BME280;19554;42.652;23.364;2024-01-15T06:31:29;93769.13;;;-0.80;63.56
33191;BME280;19554;42.652;23.364;2024-01-15T06:33:55;93833.88;;;-0.30;62.49
33191;BME280;19554;42.652;23.364;2024-01-15T06:36:21;93806.56;;;-0.51;62.37
33191;BME280;19554;42.652;23.364;2024-01-15T06:38:47;93843.88;;;-0.27;61.84
33191;BME280;19554;42.652;23.364;2024-01-15T06:41:12;93779.88;;;-0.64;62.15
33191;BME280;19554;42.652;23.364;2024-01-15T06:43:38;93759.38;;;-0.67;62.40
33191;BME280;19554;42.652;23.364;2024-01-15T06:46:03;93792.81;;;-0.41;61.45
33191;BME280;19554;42.652;23.364;2024-01-15T06:48:29;93855.78;;;-0.02;61.45
33191;BME280;19554;42.652;23.364;2024-01-15T06:50:54;93797.31;;;-0.19;61.38
33191;BME280;19554;42.652;23.364;2024-01-15T06:53:20;93846.22;;;0.09;61.75
33191;BME280;19554;42.652;23.364;2024-01-15T06:55:46;93854.50;;;0.17;61.27
33191;BME280;19554;42.652;23.364;2024-01-15T06:58:11;93853.50;;;0.23;61.46
33191;BME280;19554;42.652;23.364;2024-01-15T07:00:37;93686.34;;;-0.81;61.38
33191;BME280;19554;42.652;23.364;2024-01-15T07:03:03;93843.88;;;0.07;61.03
33191;BME280;19554;42.652;23.364;2024-01-15T07:05:28;93823.84;;;-0.33;62.23
33191;BME280;19554;42.652;23.364;2024-01-15T07:07:56;93859.75;;;0.01;62.36
33191;BME280;19554;42.652;23.364;2024-01-15T07:10:21;93854.84;;;0.04;62.29
33191;BME280;19554;42.652;23.364;2024-01-15T07:12:47;93772.00;;;-0.64;62.72
33191;BME280;19554;42.652;23.364;2024-01-15T07:15:12;93800.38;;;-0.44;62.99
33191;BME280;19554;42.652;23.364;2024-01-15T07:17:38;93720.63;;;-0.82;62.81
33191;BME280;19554;42.652;23.364;2024-01-15T07:20:06;93864.00;;;0.23;63.01
33191;BME280;19554;42.652;23.364;2024-01-15T07:22:33;93861.00;;;0.32;63.08
33191;BME280;19554;42.652;23.364;2024-01-15T07:24:59;93847.31;;;0.30;62.54
33191;BME280;19554;42.652;23.364;2024-01-15T07:27:24;93815.53;;;0.09;62.68
33191;BME280;19554;42.652;23.364;2024-01-15T07:29:49;93831.56;;;-0.26;63.99
33191;BME280;19554;42.652;23.364;2024-01-15T07:32:15;93845.84;;;0.00;64.19
33191;BME280;19554;42.652;23.364;2024-01-15T07:34:41;93844.06;;;0.22;63.30
33191;BME280;19554;42.652;23.364;2024-01-15T07:37:06;93797.75;;;0.11;63.17
33191;BME280;19554;42.652;23.364;2024-01-15T07:39:33;93837.75;;;0.23;63.60
33191;BME280;19554;42.652;23.364;2024-01-15T07:42:00;93843.31;;;0.27;63.78
33191;BME280;19554;42.652;23.364;2024-01-15T07:44:25;93761.44;;;-0.69;64.45
33191;BME280;19554;42.652;23.364;2024-01-15T07:46:51;93817.97;;;-0.40;64.95
33191;BME280;19554;42.652;23.364;2024-01-15T07:49:17;93806.78;;;-0.52;65.43
33191;BME280;19554;42.652;23.364;2024-01-15T07:51:42;93750.00;;;-0.97;65.14
33191;BME280;19554;42.652;23.364;2024-01-15T07:54:09;93784.13;;;-0.41;65.21
33191;BME280;19554;42.652;23.364;2024-01-15T07:56:53;93864.06;;;-0.10;64.92
33191;BME280;19554;42.652;23.364;2024-01-15T07:59:18;93866.84;;;0.00;64.85
33191;BME280;19554;42.652;23.364;2024-01-15T08:01:44;93771.59;;;-0.56;65.01
33191;BME280;19554;42.652;23.364;2024-01-15T08:04:09;93831.78;;;-0.28;66.02
33191;BME280;19554;42.652;23.364;2024-01-15T08:06:38;93809.66;;;-0.37;66.75
33191;BME280;19554;42.652;23.364;2024-01-15T08:09:03;93828.16;;;-0.27;66.22
33191;BME280;19554;42.652;23.364;2024-01-15T08:11:29;93766.19;;;-0.50;65.80
33191;BME280;19554;42.652;23.364;2024-01-15T08:13:55;93842.88;;;0.13;65.60
33191;BME280;19554;42.652;23.364;2024-01-15T08:16:21;93835.13;;;0.23;64.38
33191;BME280;19554;42.652;23.364;2024-01-15T08:18:47;93816.16;;;0.16;64.43
33191;BME280;19554;42.652;23.364;2024-01-15T08:21:12;93816.53;;;0.25;64.64
33191;BME280;19554;42.652;23.364;2024-01-15T08:23:39;93829.63;;;0.42;63.70
33191;BME280;19554;42.652;23.364;2024-01-15T08:26:04;93787.78;;;0.13;63.42
33191;BME280;19554;42.652;23.364;2024-01-15T08:28:30;93841.97;;;0.63;63.69
33191;BME280;19554;42.652;23.364;2024-01-15T08:30:56;93724.50;;;-0.12;63.60
33191;BME280;19554;42.652;23.364;2024-01-15T08:33:21;93790.19;;;0.37;63.24
33191;BME280;19554;42.652;23.364;2024-01-15T08:35:47;93831.09;;;0.77;63.53
33191;BME280;19554;42.652;23.364;2024-01-15T08:38:12;93808.38;;;0.65;63.11
33191;BME280;19554;42.652;23.364;2024-01-15T08:40:38;93811.16;;;0.81;63.68
33191;BME280;19554;42.652;23.364;2024-01-15T08:43:03;93787.19;;;0.72;63.52
33191;BME280;19554;42.652;23.364;2024-01-15T08:45:29;93799.88;;;1.07;63.42
33191;BME280;19554;42.652;23.364;2024-01-15T08:47:54;93792.72;;;1.30;62.81
33191;BME280;19554;42.652;23.364;2024-01-15T08:50:20;93771.47;;;1.36;61.13
33191;BME280;19554;42.652;23.364;2024-01-15T08:52:45;93808.31;;;1.69;60.77
33191;BME280;19554;42.652;23.364;2024-01-15T08:55:12;93720.88;;;1.51;60.41
33191;BME280;19554;42.652;23.364;2024-01-15T08:57:38;93785.47;;;2.17;59.07
33191;BME280;19554;42.652;23.364;2024-01-15T09:00:04;93815.63;;;2.46;58.16
33191;BME280;19554;42.652;23.364;2024-01-15T09:02:34;93799.28;;;2.49;57.26
33191;BME280;19554;42.652;23.364;2024-01-15T09:05:00;93787.78;;;2.66;56.58
33191;BME280;19554;42.652;23.364;2024-01-15T09:07:25;93671.41;;;2.01;56.03
33191;BME280;19554;42.652;23.364;2024-01-15T09:09:52;93763.06;;;2.87;55.56
33191;BME280;19554;42.652;23.364;2024-01-15T09:12:18;93672.06;;;2.38;55.64
33191;BME280;19554;42.652;23.364;2024-01-15T09:14:46;93771.53;;;2.94;54.88
33191;BME280;19554;42.652;23.364;2024-01-15T09:17:12;93610.31;;;1.88;54.77
33191;BME280;19554;42.652;23.364;2024-01-15T09:19:38;93635.94;;;2.13;55.42
33191;BME280;19554;42.652;23.364;2024-01-15T09:22:07;93719.72;;;2.42;56.13
33191;BME280;19554;42.652;23.364;2024-01-15T09:24:32;93622.19;;;1.96;55.56
33191;BME280;19554;42.652;23.364;2024-01-15T09:26:58;93716.66;;;2.60;55.26
33191;BME280;19554;42.652;23.364;2024-01-15T09:29:23;93685.78;;;2.41;55.96
33191;BME280;19554;42.652;23.364;2024-01-15T09:31:52;93733.97;;;2.41;57.01
33191;BME280;19554;42.652;23.364;2024-01-15T09:34:18;93658.59;;;1.62;58.75
33191;BME280;19554;42.652;23.364;2024-01-15T09:36:43;93681.50;;;1.66;59.40
33191;BME280;19554;42.652;23.364;2024-01-15T09:39:09;93615.06;;;1.34;59.36
33191;BME280;19554;42.652;23.364;2024-01-15T09:41:37;93691.38;;;1.49;59.82
33191;BME280;19554;42.652;23.364;2024-01-15T09:44:03;93676.25;;;1.29;60.14
33191;BME280;19554;42.652;23.364;2024-01-15T09:46:33;93672.31;;;1.27;60.18
33191;BME280;19554;42.652;23.364;2024-01-15T09:48:59;93700.25;;;1.38;60.86
33191;BME280;19554;42.652;23.364;2024-01-15T09:51:25;93597.28;;;0.71;60.65
33191;BME280;19554;42.652;23.364;2024-01-15T09:53:51;93604.06;;;0.62;61.08
33191;BME280;19554;42.652;23.364;2024-01-15T09:56:17;93634.50;;;0.63;61.76
33191;BME280;19554;42.652;23.364;2024-01-15T09:58:44;93626.53;;;0.48;62.17
33191;BME280;19554;42.652;23.364;2024-01-15T10:01:11;93632.00;;;0.19;63.11
33191;BME280;19554;42.652;23.364;2024-01-15T10:03:37;93670.13;;;0.54;63.45
33191;BME280;19554;42.652;23.364;2024-01-15T10:06:04;93623.72;;;0.33;63.13
33191;BME280;19554;42.652;23.364;2024-01-15T10:08:31;93521.81;;;-0.35;62.76
33191;BME280;19554;42.652;23.364;2024-01-15T10:10:57;93623.06;;;0.20;63.32
33191;BME280;19554;42.652;23.364;2024-01-15T10:13:23;93586.34;;;0.20;62.50
33191;BME280;19554;42.652;23.364;2024-01-15T10:15:48;93658.53;;;0.50;62.72
33191;BME280;19554;42.652;23.364;2024-01-15T10:18:14;93495.09;;;-0.32;62.88
33191;BME280;19554;42.652;23.364;2024-01-15T10:20:40;93671.94;;;0.76;63.03
33191;BME280;19554;42.652;23.364;2024-01-15T10:23:05;93569.56;;;0.49;62.27
33191;BME280;19554;42.652;23.364;2024-01-15T10:25:31;93643.56;;;0.78;62.71
33191;BME280;19554;42.652;23.364;2024-01-15T10:28:01;93631.97;;;0.74;62.60
33191;BME280;19554;42.652;23.364;2024-01-15T10:30:27;93567.13;;;0.42;62.23
33191;BME280;19554;42.652;23.364;2024-01-15T10:32:59;93618.63;;;0.80;61.68
33191;BME280;19554;42.652;23.364;2024-01-15T10:35:30;93598.69;;;0.79;60.56
33191;BME280;19554;42.652;23.364;2024-01-15T10:37:56;93531.09;;;0.32;60.86
33191;BME280;19554;42.652;23.364;2024-01-15T10:40:22;93594.28;;;0.90;60.42
33191;BME280;19554;42.652;23.364;2024-01-15T10:42:48;93546.78;;;0.59;60.28
33191;BME280;19554;42.652;23.364;2024-01-15T10:45:14;93521.47;;;0.43;60.56
33191;BME280;19554;42.652;23.364;2024-01-15T10:47:41;93574.63;;;0.98;59.45
33191;BME280;19554;42.652;23.364;2024-01-15T10:50:07;93588.88;;;1.07;59.33
33191;BME280;19554;42.652;23.364;2024-01-15T10:52:38;93614.50;;;1.27;59.21
33191;BME280;19554;42.652;23.364;2024-01-15T10:55:07;93587.28;;;1.06;59.77
33191;BME280;19554;42.652;23.364;2024-01-15T10:57:35;93466.59;;;0.41;59.44
33191;BME280;19554;42.652;23.364;2024-01-15T11:00:01;93570.84;;;1.21;59.02
33191;BME280;19554;42.652;23.364;2024-01-15T11:02:32;93546.06;;;1.11;58.56
33191;BME280;19554;42.652;23.364;2024-01-15T11:05:00;93562.03;;;1.52;58.35
33191;BME280;19554;42.652;23.364;2024-01-15T11:07:26;93589.94;;;1.58;58.91
33191;BME280;19554;42.652;23.364;2024-01-15T11:09:51;93526.75;;;1.38;58.61
33191;BME280;19554;42.652;23.364;2024-01-15T11:12:17;93503.78;;;1.13;58.86
33191;BME280;19554;42.652;23.364;2024-01-15T11:14:47;93439.34;;;1.05;57.99
33191;BME280;19554;42.652;23.364;2024-01-15T11:17:14;93572.06;;;1.60;58.76
33191;BME280;19554;42.652;23.364;2024-01-15T11:19:49;93558.47;;;1.84;58.85
33191;BME280;19554;42.652;23.364;2024-01-15T11:25:17;93550.13;;;2.18;58.60
33191;BME280;19554;42.652;23.364;2024-01-15T11:27:44;93544.63;;;2.34;57.85
33191;BME280;19554;42.652;23.364;2024-01-15T11:30:12;93550.66;;;2.45;58.12
33191;BME280;19554;42.652;23.364;2024-01-15T11:32:38;93542.78;;;2.71;57.49
33191;BME280;19554;42.652;23.364;2024-01-15T11:35:08;93557.78;;;2.91;56.78
33191;BME280;19554;42.652;23.364;2024-01-15T11:40:36;93525.06;;;3.07;55.50
33191;BME280;19554;42.652;23.364;2024-01-15T11:43:04;93527.47;;;2.88;56.20
33191;BME280;19554;42.652;23.364;2024-01-15T11:45:31;93511.13;;;3.01;55.88
33191;BME280;19554;42.652;23.364;2024-01-15T11:48:15;93522.41;;;3.22;55.34
33191;BME280;19554;42.652;23.364;2024-01-15T11:50:44;93491.38;;;2.89;55.63
33191;BME280;19554;42.652;23.364;2024-01-15T11:55:58;93533.75;;;3.23;55.74
33191;BME280;19554;42.652;23.364;2024-01-15T11:58:23;93516.28;;;3.37;55.67
33191;BME280;19554;42.652;23.364;2024-01-15T12:00:52;93454.19;;;2.95;55.34
33191;BME280;19554;42.652;23.364;2024-01-15T12:03:22;93508.63;;;3.41;55.44
33191;BME280;19554;42.652;23.364;2024-01-15T12:05:48;93385.81;;;2.49;55.33
33191;BME280;19554;42.652;23.364;2024-01-15T12:08:14;93458.72;;;2.84;55.49
33191;BME280;19554;42.652;23.364;2024-01-15T12:10:40;93406.84;;;2.65;55.49
33191;BME280;19554;42.652;23.364;2024-01-15T12:13:14;93478.72;;;2.96;56.74
33191;BME280;19554;42.652;23.364;2024-01-15T12:15:41;93488.94;;;3.07;57.34
33191;BME280;19554;42.652;23.364;2024-01-15T12:18:08;93496.03;;;3.22;57.24
33191;BME280;19554;42.652;23.364;2024-01-15T12:20:34;93489.97;;;3.22;57.30
33191;BME280;19554;42.652;23.364;2024-01-15T12:23:00;93494.13;;;3.38;56.70
33191;BME280;19554;42.652;23.364;2024-01-15T12:25:26;93469.47;;;3.08;56.99
33191;BME280;19554;42.652;23.364;2024-01-15T12:27:53;93477.66;;;2.87;58.27
33191;BME280;19554;42.652;23.364;2024-01-15T12:30:19;93490.06;;;2.91;58.57
33191;BME280;19554;42.652;23.364;2024-01-15T12:32:45;93482.63;;;3.03;58.34
33191;BME280;19554;42.652;23.364;2024-01-15T12:35:12;93489.47;;;3.15;58.28
33191;BME280;19554;42.652;23.364;2024-01-15T12:37:42;93445.75;;;2.93;58.33
33191;BME280;19554;42.652;23.364;2024-01-15T12:40:09;93472.00;;;3.34;57.69
33191;BME280;19554;42.652;23.364;2024-01-15T12:42:41;93338.44;;;2.39;57.87
33191;BME280;19554;42.652;23.364;2024-01-15T12:45:09;93457.75;;;3.35;56.98
33191;BME280;19554;42.652;23.364;2024-01-15T12:47:35;93466.66;;;3.44;59.86
33191;BME280;19554;42.652;23.364;2024-01-15T12:50:01;93467.19;;;3.46;57.95
33191;BME280;19554;42.652;23.364;2024-01-15T12:52:29;93459.50;;;3.55;57.09
33191;BME280;19554;42.652;23.364;2024-01-15T12:54:56;93390.41;;;2.98;57.49
33191;BME280;19554;42.652;23.364;2024-01-15T12:57:21;93453.44;;;3.54;57.50
33191;BME280;19554;42.652;23.364;2024-01-15T12:59:48;93398.69;;;3.31;61.53